sensor_id;sensor_type;location;lat;lon;timestamp;P1;durP1;ratioP1;P2;durP2;ratioP2
75739;SDS011;64357;51.344;6.550;2023-05-10T00:01:39;12.77;;;5.32;;
75739;SDS011;64357;51.344;6.550;2023-05-10T00:04:05;13.57;;;5.05;;
75739;SDS011;64357;51.344;6.550;2023-05-10T00:06:30;12.60;;;4.95;;
75739;SDS011;64357;51.344;6.550;2023-05-10T00:08:56;14.63;;;5.70;;
75739;SDS011;64357;51.344;6.550;2023-05-10T00:11:22;13.55;;;4.97;;
75739;SDS011;64357;51.344;6.550;2023-05-10T00:13:47;14.33;;;4.83;;
75739;SDS011;64357;51.344;6.550;2023-05-10T00:16:12;16.03;;;5.73;;
75739;SDS011;64357;51.344;6.550;2023-05-10T00:18:38;13.85;;;6.13;;
75739;SDS011;64357;51.344;6.550;2023-05-10T00:21:04;15.50;;;5.60;;
75739;SDS011;64357;51.344;6.550;2023-05-10T00:23:30;15.55;;;6.22;;
75739;SDS011;64357;51.344;6.550;2023-05-10T00:25:55;14.55;;;5.20;;
75739;SDS011;64357;51.344;6.550;2023-05-10T00:28:23;17.27;;;6.13;;
75739;SDS011;64357;51.344;6.550;2023-05-10T00:30:51;16.20;;;6.70;;
75739;SDS011;64357;51.344;6.550;2023-05-10T00:33:16;16.93;;;6.03;;
75739;SDS011;64357;51.344;6.550;2023-05-10T00:35:43;16.60;;;6.03;;
75739;SDS011;64357;51.344;6.550;2023-05-10T00:38:08;18.42;;;6.93;;
75739;SDS011;64357;51.344;6.550;2023-05-10T00:40:36;20.58;;;8.30;;
75739;SDS011;64357;51.344;6.550;2023-05-10T00:43:04;19.55;;;7.30;;
75739;SDS011;64357;51.344;6.550;2023-05-10T00:45:33;21.03;;;7.63;;
75739;SDS011;64357;51.344;6.550;2023-05-10T00:48:03;16.60;;;6.47;;
75739;SDS011;64357;51.344;6.550;2023-05-10T00:50:32;18.88;;;7.20;;
75739;SDS011;64357;51.344;6.550;2023-05-10T00:53:04;16.08;;;6.53;;
75739;SDS011;64357;51.344;6.550;2023-05-10T00:55:32;17.75;;;6.35;;
75739;SDS011;64357;51.344;6.550;2023-05-10T00:57:57;17.35;;;6.28;;
75739;SDS011;64357;51.344;6.550;2023-05-10T01:00:23;16.77;;;5.80;;
75739;SDS011;64357;51.344;6.550;2023-05-10T01:02:48;15.55;;;5.63;;
75739;SDS011;64357;51.344;6.550;2023-05-10T01:05:14;17.23;;;5.45;;
75739;SDS011;64357;51.344;6.550;2023-05-10T01:07:42;16.58;;;5.60;;
75739;SDS011;64357;51.344;6.550;2023-05-10T01:10:07;15.00;;;5.25;;
75739;SDS011;64357;51.344;6.550;2023-05-10T01:12:37;13.68;;;5.32;;
75739;SDS011;64357;51.344;6.550;2023-05-10T01:15:07;12.43;;;5.25;;
75739;SDS011;64357;51.344;6.550;2023-05-10T01:17:40;13.50;;;5.53;;
75739;SDS011;64357;51.344;6.550;2023-05-10T01:20:10;15.00;;;5.72;;
75739;SDS011;64357;51.344;6.550;2023-05-10T01:36:31;18.67;;;7.30;;
75739;SDS011;64357;51.344;6.550;2023-05-10T01:39:11;19.90;;;7.68;;
75739;SDS011;64357;51.344;6.550;2023-05-10T01:46:57;20.45;;;7.03;;
75739;SDS011;64357;51.344;6.550;2023-05-10T01:49:31;16.80;;;7.00;;
75739;SDS011;64357;51.344;6.550;2023-05-10T01:52:03;17.67;;;7.15;;
75739;SDS011;64357;51.344;6.550;2023-05-10T01:54:44;17.88;;;6.57;;
75739;SDS011;64357;51.344;6.550;2023-05-10T01:57:15;16.90;;;7.25;;
75739;SDS011;64357;51.344;6.550;2023-05-10T01:59:45;14.88;;;6.20;;
75739;SDS011;64357;51.344;6.550;2023-05-10T02:02:18;18.30;;;7.13;;
75739;SDS011;64357;51.344;6.550;2023-05-10T02:04:45;18.30;;;6.97;;
75739;SDS011;64357;51.344;6.550;2023-05-10T02:07:16;17.67;;;6.50;;
75739;SDS011;64357;51.344;6.550;2023-05-10T02:12:13;13.45;;;5.35;;
75739;SDS011;64357;51.344;6.550;2023-05-10T02:14:42;13.73;;;5.30;;
75739;SDS011;64357;51.344;6.550;2023-05-10T02:17:11;17.45;;;6.40;;
75739;SDS011;64357;51.344;6.550;2023-05-10T02:19:39;15.70;;;5.30;;
75739;SDS011;64357;51.344;6.550;2023-05-10T02:22:10;16.05;;;5.63;;
75739;SDS011;64357;51.344;6.550;2023-05-10T02:24:42;15.27;;;6.50;;
75739;SDS011;64357;51.344;6.550;2023-05-10T02:27:09;15.02;;;5.45;;
75739;SDS011;64357;51.344;6.550;2023-05-10T02:29:37;14.65;;;5.50;;
75739;SDS011;64357;51.344;6.550;2023-05-10T02:32:04;14.85;;;6.00;;
75739;SDS011;64357;51.344;6.550;2023-05-10T02:34:33;14.07;;;5.60;;
75739;SDS011;64357;51.344;6.550;2023-05-10T02:36:59;10.95;;;4.70;;
75739;SDS011;64357;51.344;6.550;2023-05-10T02:39:27;12.95;;;5.10;;
75739;SDS011;64357;51.344;6.550;2023-05-10T02:41:54;13.68;;;4.90;;
75739;SDS011;64357;51.344;6.550;2023-05-10T02:44:26;13.20;;;5.53;;
75739;SDS011;64357;51.344;6.550;2023-05-10T02:46:55;12.55;;;5.20;;
75739;SDS011;64357;51.344;6.550;2023-05-10T02:49:22;12.45;;;4.80;;
75739;SDS011;64357;51.344;6.550;2023-05-10T02:51:54;12.48;;;5.25;;
75739;SDS011;64357;51.344;6.550;2023-05-10T02:54:27;15.15;;;5.82;;
75739;SDS011;64357;51.344;6.550;2023-05-10T02:56:58;11.43;;;4.82;;
75739;SDS011;64357;51.344;6.550;2023-05-10T02:59:25;13.25;;;5.30;;
75739;SDS011;64357;51.344;6.550;2023-05-10T03:01:51;12.65;;;5.22;;
75739;SDS011;64357;51.344;6.550;2023-05-10T03:04:17;18.75;;;7.57;;
75739;SDS011;64357;51.344;6.550;2023-05-10T03:06:42;13.10;;;5.65;;
75739;SDS011;64357;51.344;6.550;2023-05-10T03:09:08;15.10;;;5.57;;
75739;SDS011;64357;51.344;6.550;2023-05-10T03:11:56;15.60;;;6.07;;
75739;SDS011;64357;51.344;6.550;2023-05-10T03:14:49;14.65;;;5.35;;
75739;SDS011;64357;51.344;6.550;2023-05-10T03:17:41;13.50;;;5.40;;
75739;SDS011;64357;51.344;6.550;2023-05-10T03:20:42;14.45;;;5.68;;
75739;SDS011;64357;51.344;6.550;2023-05-10T03:23:12;13.32;;;5.57;;
75739;SDS011;64357;51.344;6.550;2023-05-10T03:28:15;15.45;;;5.82;;
75739;SDS011;64357;51.344;6.550;2023-05-10T03:30:42;15.13;;;5.95;;
75739;SDS011;64357;51.344;6.550;2023-05-10T03:33:08;17.23;;;6.55;;
75739;SDS011;64357;51.344;6.550;2023-05-10T03:35:37;16.92;;;6.38;;
75739;SDS011;64357;51.344;6.550;2023-05-10T03:38:03;17.40;;;6.80;;
75739;SDS011;64357;51.344;6.550;2023-05-10T03:40:30;15.67;;;6.73;;
75739;SDS011;64357;51.344;6.550;2023-05-10T03:42:59;16.27;;;7.25;;
75739;SDS011;64357;51.344;6.550;2023-05-10T03:45:25;18.33;;;7.28;;
75739;SDS011;64357;51.344;6.550;2023-05-10T03:47:53;17.08;;;6.82;;
75739;SDS011;64357;51.344;6.550;2023-05-10T03:50:21;17.92;;;6.68;;
75739;SDS011;64357;51.344;6.550;2023-05-10T03:52:47;16.83;;;6.75;;
75739;SDS011;64357;51.344;6.550;2023-05-10T03:55:12;17.80;;;7.20;;
75739;SDS011;64357;51.344;6.550;2023-05-10T03:57:41;17.38;;;6.97;;
75739;SDS011;64357;51.344;6.550;2023-05-10T04:00:07;17.42;;;7.40;;
75739;SDS011;64357;51.344;6.550;2023-05-10T04:02:35;20.23;;;7.85;;
75739;SDS011;64357;51.344;6.550;2023-05-10T04:05:01;48.95;;;23.55;;
75739;SDS011;64357;51.344;6.550;2023-05-10T04:07:29;20.63;;;8.35;;
75739;SDS011;64357;51.344;6.550;2023-05-10T04:09:54;20.30;;;8.20;;
75739;SDS011;64357;51.344;6.550;2023-05-10T04:12:22;21.88;;;8.95;;
75739;SDS011;64357;51.344;6.550;2023-05-10T04:14:48;23.15;;;9.48;;
75739;SDS011;64357;51.344;6.550;2023-05-10T04:17:13;22.40;;;9.10;;
75739;SDS011;64357;51.344;6.550;2023-05-10T04:19:38;22.30;;;9.18;;
75739;SDS011;64357;51.344;6.550;2023-05-10T04:22:04;25.85;;;9.70;;
75739;SDS011;64357;51.344;6.550;2023-05-10T04:24:30;23.05;;;8.95;;
75739;SDS011;64357;51.344;6.550;2023-05-10T04:26:57;25.65;;;10.27;;
75739;SDS011;64357;51.344;6.550;2023-05-10T04:29:25;27.27;;;10.40;;
75739;SDS011;64357;51.344;6.550;2023-05-10T04:31:50;25.30;;;10.15;;
75739;SDS011;64357;51.344;6.550;2023-05-10T04:34:16;26.60;;;11.85;;
75739;SDS011;64357;51.344;6.550;2023-05-10T04:36:41;24.33;;;9.40;;
75739;SDS011;64357;51.344;6.550;2023-05-10T04:39:07;23.15;;;9.35;;
75739;SDS011;64357;51.344;6.550;2023-05-10T04:41:32;26.20;;;10.32;;
75739;SDS011;64357;51.344;6.550;2023-05-10T04:43:57;24.90;;;8.95;;
75739;SDS011;64357;51.344;6.550;2023-05-10T04:46:23;25.95;;;9.88;;
75739;SDS011;64357;51.344;6.550;2023-05-10T04:48:49;26.03;;;9.27;;
75739;SDS011;64357;51.344;6.550;2023-05-10T04:51:14;29.02;;;10.23;;
75739;SDS011;64357;51.344;6.550;2023-05-10T04:53:39;28.60;;;10.70;;
75739;SDS011;64357;51.344;6.550;2023-05-10T04:56:07;28.05;;;10.25;;
75739;SDS011;64357;51.344;6.550;2023-05-10T04:58:35;26.42;;;10.32;;
75739;SDS011;64357;51.344;6.550;2023-05-10T05:01:10;26.45;;;11.40;;
75739;SDS011;64357;51.344;6.550;2023-05-10T05:03:37;28.58;;;11.27;;
75739;SDS011;64357;51.344;6.550;2023-05-10T05:06:03;28.70;;;10.97;;
75739;SDS011;64357;51.344;6.550;2023-05-10T05:08:28;27.80;;;9.85;;
75739;SDS011;64357;51.344;6.550;2023-05-10T05:10:54;31.77;;;12.13;;
75739;SDS011;64357;51.344;6.550;2023-05-10T05:13:19;28.80;;;11.20;;
75739;SDS011;64357;51.344;6.550;2023-05-10T05:15:47;27.52;;;11.65;;
75739;SDS011;64357;51.344;6.550;2023-05-10T05:18:12;29.20;;;11.75;;
75739;SDS011;64357;51.344;6.550;2023-05-10T05:20:39;27.23;;;11.07;;
75739;SDS011;64357;51.344;6.550;2023-05-10T05:23:07;30.15;;;11.65;;
75739;SDS011;64357;51.344;6.550;2023-05-10T05:25:33;31.85;;;12.95;;
75739;SDS011;64357;51.344;6.550;2023-05-10T05:28:01;31.55;;;11.90;;
75739;SDS011;64357;51.344;6.550;2023-05-10T05:30:31;26.25;;;10.70;;
75739;SDS011;64357;51.344;6.550;2023-05-10T05:32:58;32.75;;;11.57;;
75739;SDS011;64357;51.344;6.550;2023-05-10T05:35:26;33.90;;;12.93;;
75739;SDS011;64357;51.344;6.550;2023-05-10T05:37:56;37.35;;;12.25;;
75739;SDS011;64357;51.344;6.550;2023-05-10T05:40:25;29.40;;;10.07;;
75739;SDS011;64357;51.344;6.550;2023-05-10T05:42:50;28.88;;;10.93;;
75739;SDS011;64357;51.344;6.550;2023-05-10T05:45:16;33.30;;;12.43;;
75739;SDS011;64357;51.344;6.550;2023-05-10T05:47:41;33.92;;;12.73;;
75739;SDS011;64357;51.344;6.550;2023-05-10T05:50:09;32.03;;;11.68;;
75739;SDS011;64357;51.344;6.550;2023-05-10T05:52:38;33.30;;;11.43;;
75739;SDS011;64357;51.344;6.550;2023-05-10T05:55:04;31.80;;;10.48;;
75739;SDS011;64357;51.344;6.550;2023-05-10T05:57:29;32.13;;;11.40;;
75739;SDS011;64357;51.344;6.550;2023-05-10T05:59:57;32.60;;;12.55;;
75739;SDS011;64357;51.344;6.550;2023-05-10T06:02:22;34.25;;;12.90;;
75739;SDS011;64357;51.344;6.550;2023-05-10T06:04:51;33.67;;;11.15;;
75739;SDS011;64357;51.344;6.550;2023-05-10T06:07:17;31.90;;;10.80;;
75739;SDS011;64357;51.344;6.550;2023-05-10T06:09:42;36.67;;;12.87;;
75739;SDS011;64357;51.344;6.550;2023-05-10T06:12:10;35.95;;;12.50;;
75739;SDS011;64357;51.344;6.550;2023-05-10T06:14:36;37.05;;;12.50;;
75739;SDS011;64357;51.344;6.550;2023-05-10T06:17:01;31.17;;;13.10;;
75739;SDS011;64357;51.344;6.550;2023-05-10T06:19:29;33.88;;;12.02;;
75739;SDS011;64357;51.344;6.550;2023-05-10T06:21:54;33.55;;;12.15;;
75739;SDS011;64357;51.344;6.550;2023-05-10T06:24:19;36.55;;;12.13;;
75739;SDS011;64357;51.344;6.550;2023-05-10T06:26:46;34.45;;;11.10;;
75739;SDS011;64357;51.344;6.550;2023-05-10T06:29:11;31.60;;;11.60;;
75739;SDS011;64357;51.344;6.550;2023-05-10T06:31:37;32.93;;;11.87;;
75739;SDS011;64357;51.344;6.550;2023-05-10T06:34:04;33.65;;;11.60;;
75739;SDS011;64357;51.344;6.550;2023-05-10T06:36:31;30.88;;;12.60;;
75739;SDS011;64357;51.344;6.550;2023-05-10T06:38:56;34.80;;;12.75;;
75739;SDS011;64357;51.344;6.550;2023-05-10T06:41:24;37.63;;;12.65;;
75739;SDS011;64357;51.344;6.550;2023-05-10T06:43:49;34.30;;;11.60;;
75739;SDS011;64357;51.344;6.550;2023-05-10T06:46:18;35.30;;;11.38;;
75739;SDS011;64357;51.344;6.550;2023-05-10T06:48:43;38.15;;;12.18;;
75739;SDS011;64357;51.344;6.550;2023-05-10T06:51:09;36.08;;;11.88;;
75739;SDS011;64357;51.344;6.550;2023-05-10T06:53:35;36.10;;;12.18;;
75739;SDS011;64357;51.344;6.550;2023-05-10T06:56:03;24.23;;;9.15;;
75739;SDS011;64357;51.344;6.550;2023-05-10T06:58:28;32.03;;;11.82;;
75739;SDS011;64357;51.344;6.550;2023-05-10T07:01:04;37.05;;;11.82;;
75739;SDS011;64357;51.344;6.550;2023-05-10T07:03:30;32.63;;;11.55;;
75739;SDS011;64357;51.344;6.550;2023-05-10T07:06:02;30.23;;;12.25;;
75739;SDS011;64357;51.344;6.550;2023-05-10T07:08:33;27.70;;;11.07;;
75739;SDS011;64357;51.344;6.550;2023-05-10T07:11:06;31.95;;;10.77;;
75739;SDS011;64357;51.344;6.550;2023-05-10T07:13:32;30.60;;;10.93;;
75739;SDS011;64357;51.344;6.550;2023-05-10T07:15:58;28.13;;;10.27;;
75739;SDS011;64357;51.344;6.550;2023-05-10T07:18:24;29.95;;;10.73;;
75739;SDS011;64357;51.344;6.550;2023-05-10T07:20:50;31.50;;;11.38;;
75739;SDS011;64357;51.344;6.550;2023-05-10T07:23:15;31.30;;;11.77;;
75739;SDS011;64357;51.344;6.550;2023-05-10T07:25:44;29.95;;;11.85;;
75739;SDS011;64357;51.344;6.550;2023-05-10T07:28:13;34.15;;;12.75;;
75739;SDS011;64357;51.344;6.550;2023-05-10T07:30:39;36.35;;;12.13;;
75739;SDS011;64357;51.344;6.550;2023-05-10T07:33:05;37.25;;;12.75;;
75739;SDS011;64357;51.344;6.550;2023-05-10T07:35:30;37.63;;;11.98;;
75739;SDS011;64357;51.344;6.550;2023-05-10T07:37:55;35.37;;;12.23;;
75739;SDS011;64357;51.344;6.550;2023-05-10T07:40:21;39.17;;;13.45;;
75739;SDS011;64357;51.344;6.550;2023-05-10T07:42:46;35.25;;;12.15;;
75739;SDS011;64357;51.344;6.550;2023-05-10T07:45:12;38.80;;;11.30;;
75739;SDS011;64357;51.344;6.550;2023-05-10T07:47:37;34.03;;;13.20;;
75739;SDS011;64357;51.344;6.550;2023-05-10T07:50:05;32.47;;;11.30;;
75739;SDS011;64357;51.344;6.550;2023-05-10T07:52:31;35.13;;;11.70;;
75739;SDS011;64357;51.344;6.550;2023-05-10T07:54:58;25.90;;;9.27;;
75739;SDS011;64357;51.344;6.550;2023-05-10T07:57:26;36.00;;;12.05;;
75739;SDS011;64357;51.344;6.550;2023-05-10T08:00:05;32.47;;;11.75;;
75739;SDS011;64357;51.344;6.550;2023-05-10T08:02:33;27.30;;;9.52;;
75739;SDS011;64357;51.344;6.550;2023-05-10T08:05:07;31.17;;;12.18;;
75739;SDS011;64357;51.344;6.550;2023-05-10T08:07:35;31.58;;;11.40;;
75739;SDS011;64357;51.344;6.550;2023-05-10T08:10:04;25.35;;;9.95;;
75739;SDS011;64357;51.344;6.550;2023-05-10T08:12:30;19.20;;;8.43;;
75739;SDS011;64357;51.344;6.550;2023-05-10T08:14:58;25.27;;;9.27;;
75739;SDS011;64357;51.344;6.550;2023-05-10T08:17:26;27.90;;;10.27;;
75739;SDS011;64357;51.344;6.550;2023-05-10T08:19:52;29.15;;;11.18;;
75739;SDS011;64357;51.344;6.550;2023-05-10T08:22:18;32.97;;;11.45;;
75739;SDS011;64357;51.344;6.550;2023-05-10T08:24:43;23.45;;;8.75;;
75739;SDS011;64357;51.344;6.550;2023-05-10T08:27:09;31.10;;;12.05;;
75739;SDS011;64357;51.344;6.550;2023-05-10T08:29:40;27.42;;;11.05;;
75739;SDS011;64357;51.344;6.550;2023-05-10T08:32:08;25.83;;;10.82;;
75739;SDS011;64357;51.344;6.550;2023-05-10T08:34:36;22.08;;;7.70;;
75739;SDS011;64357;51.344;6.550;2023-05-10T08:37:05;17.73;;;8.07;;
75739;SDS011;64357;51.344;6.550;2023-05-10T08:39:35;24.90;;;8.68;;
75739;SDS011;64357;51.344;6.550;2023-05-10T08:42:03;22.65;;;9.43;;
75739;SDS011;64357;51.344;6.550;2023-05-10T08:44:30;21.75;;;9.32;;
75739;SDS011;64357;51.344;6.550;2023-05-10T08:47:01;20.45;;;8.30;;
75739;SDS011;64357;51.344;6.550;2023-05-10T08:49:30;19.65;;;8.38;;
75739;SDS011;64357;51.344;6.550;2023-05-10T08:52:13;25.08;;;9.85;;
75739;SDS011;64357;51.344;6.550;2023-05-10T08:54:44;23.85;;;7.95;;
75739;SDS011;64357;51.344;6.550;2023-05-10T08:57:13;19.42;;;7.97;;
75739;SDS011;64357;51.344;6.550;2023-05-10T08:59:38;18.25;;;7.53;;
75739;SDS011;64357;51.344;6.550;2023-05-10T09:02:06;16.38;;;7.35;;
75739;SDS011;64357;51.344;6.550;2023-05-10T09:04:35;21.02;;;7.93;;
75739;SDS011;64357;51.344;6.550;2023-05-10T09:07:00;17.97;;;6.97;;
75739;SDS011;64357;51.344;6.550;2023-05-10T09:09:26;18.15;;;6.78;;
75739;SDS011;64357;51.344;6.550;2023-05-10T09:11:58;18.23;;;6.57;;
75739;SDS011;64357;51.344;6.550;2023-05-10T09:14:27;19.83;;;7.50;;
75739;SDS011;64357;51.344;6.550;2023-05-10T09:16:53;19.60;;;7.50;;
75739;SDS011;64357;51.344;6.550;2023-05-10T09:19:21;19.67;;;7.85;;
75739;SDS011;64357;51.344;6.550;2023-05-10T09:21:49;19.48;;;7.78;;
75739;SDS011;64357;51.344;6.550;2023-05-10T09:24:29;14.57;;;6.55;;
75739;SDS011;64357;51.344;6.550;2023-05-10T09:26:56;20.25;;;7.15;;
75739;SDS011;64357;51.344;6.550;2023-05-10T09:29:23;18.67;;;8.05;;
75739;SDS011;64357;51.344;6.550;2023-05-10T09:31:51;14.30;;;6.40;;
75739;SDS011;64357;51.344;6.550;2023-05-10T09:34:30;18.60;;;8.00;;
75739;SDS011;64357;51.344;6.550;2023-05-10T09:36:57;20.98;;;7.57;;
75739;SDS011;64357;51.344;6.550;2023-05-10T09:42:42;15.07;;;6.15;;
75739;SDS011;64357;51.344;6.550;2023-05-10T09:45:28;23.92;;;10.52;;
75739;SDS011;64357;51.344;6.550;2023-05-10T09:47:55;21.80;;;8.43;;
75739;SDS011;64357;51.344;6.550;2023-05-10T09:50:21;20.35;;;7.95;;
75739;SDS011;64357;51.344;6.550;2023-05-10T09:52:59;19.95;;;8.15;;
75739;SDS011;64357;51.344;6.550;2023-05-10T09:58:09;19.42;;;8.30;;
75739;SDS011;64357;51.344;6.550;2023-05-10T10:00:38;22.85;;;9.60;;
75739;SDS011;64357;51.344;6.550;2023-05-10T10:03:05;18.83;;;7.38;;
75739;SDS011;64357;51.344;6.550;2023-05-10T10:05:34;16.73;;;5.82;;
75739;SDS011;64357;51.344;6.550;2023-05-10T10:08:01;13.10;;;5.40;;
75739;SDS011;64357;51.344;6.550;2023-05-10T10:10:28;16.75;;;5.78;;
75739;SDS011;64357;51.344;6.550;2023-05-10T10:12:54;16.13;;;7.53;;
75739;SDS011;64357;51.344;6.550;2023-05-10T10:15:23;13.60;;;6.38;;
75739;SDS011;64357;51.344;6.550;2023-05-10T10:17:56;16.10;;;6.68;;
75739;SDS011;64357;51.344;6.550;2023-05-10T10:20:25;17.52;;;6.93;;
75739;SDS011;64357;51.344;6.550;2023-05-10T10:22:51;16.48;;;7.07;;
75739;SDS011;64357;51.344;6.550;2023-05-10T10:25:17;14.88;;;6.43;;
75739;SDS011;64357;51.344;6.550;2023-05-10T10:27:49;16.08;;;6.25;;
75739;SDS011;64357;51.344;6.550;2023-05-10T10:30:35;17.40;;;6.65;;
75739;SDS011;64357;51.344;6.550;2023-05-10T10:35:58;15.68;;;7.03;;
75739;SDS011;64357;51.344;6.550;2023-05-10T10:41:31;15.82;;;7.25;;
75739;SDS011;64357;51.344;6.550;2023-05-10T10:52:27;15.50;;;7.22;;
75739;SDS011;64357;51.344;6.550;2023-05-10T11:02:59;13.10;;;6.25;;
75739;SDS011;64357;51.344;6.550;2023-05-10T11:05:40;14.27;;;6.90;;
75739;SDS011;64357;51.344;6.550;2023-05-10T11:10:34;16.63;;;6.97;;
75739;SDS011;64357;51.344;6.550;2023-05-10T11:18:16;17.25;;;6.97;;
75739;SDS011;64357;51.344;6.550;2023-05-10T11:20:52;13.75;;;5.90;;
75739;SDS011;64357;51.344;6.550;2023-05-10T11:23:28;17.30;;;7.07;;
75739;SDS011;64357;51.344;6.550;2023-05-10T11:26:02;18.35;;;6.22;;
75739;SDS011;64357;51.344;6.550;2023-05-10T11:28:28;13.32;;;6.72;;
75739;SDS011;64357;51.344;6.550;2023-05-10T11:30:55;16.23;;;6.57;;
75739;SDS011;64357;51.344;6.550;2023-05-10T11:33:22;14.48;;;5.57;;
75739;SDS011;64357;51.344;6.550;2023-05-10T11:35:50;12.98;;;5.60;;
75739;SDS011;64357;51.344;6.550;2023-05-10T11:38:15;15.30;;;7.00;;
75739;SDS011;64357;51.344;6.550;2023-05-10T11:40:40;14.25;;;7.20;;
75739;SDS011;64357;51.344;6.550;2023-05-10T11:43:06;15.88;;;6.78;;
75739;SDS011;64357;51.344;6.550;2023-05-10T11:45:35;15.25;;;6.97;;
75739;SDS011;64357;51.344;6.550;2023-05-10T11:48:01;17.00;;;6.78;;
75739;SDS011;64357;51.344;6.550;2023-05-10T11:50:32;15.25;;;6.82;;
75739;SDS011;64357;51.344;6.550;2023-05-10T11:52:59;16.30;;;7.07;;
75739;SDS011;64357;51.344;6.550;2023-05-10T11:55:27;15.43;;;7.38;;
75739;SDS011;64357;51.344;6.550;2023-05-10T11:57:55;16.60;;;7.57;;
75739;SDS011;64357;51.344;6.550;2023-05-10T12:00:24;14.25;;;7.40;;
75739;SDS011;64357;51.344;6.550;2023-05-10T12:02:50;12.98;;;6.68;;
75739;SDS011;64357;51.344;6.550;2023-05-10T12:05:20;17.70;;;6.95;;
75739;SDS011;64357;51.344;6.550;2023-05-10T12:07:46;13.75;;;6.78;;
75739;SDS011;64357;51.344;6.550;2023-05-10T12:10:12;14.87;;;7.07;;
75739;SDS011;64357;51.344;6.550;2023-05-10T12:12:43;15.90;;;7.80;;
75739;SDS011;64357;51.344;6.550;2023-05-10T12:15:12;12.80;;;6.75;;
75739;SDS011;64357;51.344;6.550;2023-05-10T12:17:43;10.55;;;5.18;;
75739;SDS011;64357;51.344;6.550;2023-05-10T12:20:19;13.27;;;6.63;;
75739;SDS011;64357;51.344;6.550;2023-05-10T12:22:53;12.45;;;6.20;;
75739;SDS011;64357;51.344;6.550;2023-05-10T12:25:21;14.15;;;6.90;;
75739;SDS011;64357;51.344;6.550;2023-05-10T12:27:48;10.70;;;5.72;;
75739;SDS011;64357;51.344;6.550;2023-05-10T12:30:19;11.48;;;5.88;;
75739;SDS011;64357;51.344;6.550;2023-05-10T12:32:46;12.13;;;6.15;;
75739;SDS011;64357;51.344;6.550;2023-05-10T12:35:14;13.25;;;6.30;;
75739;SDS011;64357;51.344;6.550;2023-05-10T12:37:40;12.75;;;6.57;;
75739;SDS011;64357;51.344;6.550;2023-05-10T12:40:09;13.20;;;6.40;;
75739;SDS011;64357;51.344;6.550;2023-05-10T12:42:36;13.73;;;6.97;;
75739;SDS011;64357;51.344;6.550;2023-05-10T12:45:03;12.50;;;6.07;;
75739;SDS011;64357;51.344;6.550;2023-05-10T12:47:29;13.07;;;7.20;;
75739;SDS011;64357;51.344;6.550;2023-05-10T12:49:57;11.88;;;6.13;;
75739;SDS011;64357;51.344;6.550;2023-05-10T12:52:23;13.38;;;6.38;;
75739;SDS011;64357;51.344;6.550;2023-05-10T12:54:48;14.10;;;7.28;;
75739;SDS011;64357;51.344;6.550;2023-05-10T12:57:14;14.40;;;6.87;;
75739;SDS011;64357;51.344;6.550;2023-05-10T12:59:39;14.90;;;6.60;;
75739;SDS011;64357;51.344;6.550;2023-05-10T13:02:05;14.27;;;7.20;;
75739;SDS011;64357;51.344;6.550;2023-05-10T13:04:31;14.23;;;7.65;;
75739;SDS011;64357;51.344;6.550;2023-05-10T13:06:56;16.20;;;7.73;;
75739;SDS011;64357;51.344;6.550;2023-05-10T13:09:23;16.33;;;7.88;;
75739;SDS011;64357;51.344;6.550;2023-05-10T13:11:52;16.52;;;8.35;;
75739;SDS011;64357;51.344;6.550;2023-05-10T13:14:19;15.85;;;8.30;;
75739;SDS011;64357;51.344;6.550;2023-05-10T13:16:45;19.23;;;8.10;;
75739;SDS011;64357;51.344;6.550;2023-05-10T13:19:11;16.42;;;7.35;;
75739;SDS011;64357;51.344;6.550;2023-05-10T13:21:37;17.48;;;8.50;;
75739;SDS011;64357;51.344;6.550;2023-05-10T13:24:02;17.47;;;8.63;;
75739;SDS011;64357;51.344;6.550;2023-05-10T13:26:27;17.67;;;7.80;;
75739;SDS011;64357;51.344;6.550;2023-05-10T13:28:53;17.10;;;9.15;;
75739;SDS011;64357;51.344;6.550;2023-05-10T13:31:21;17.55;;;9.10;;
75739;SDS011;64357;51.344;6.550;2023-05-10T13:33:51;21.00;;;14.88;;
75739;SDS011;64357;51.344;6.550;2023-05-10T13:36:16;17.08;;;9.48;;
75739;SDS011;64357;51.344;6.550;2023-05-10T13:38:41;20.03;;;10.00;;
75739;SDS011;64357;51.344;6.550;2023-05-10T13:41:07;19.33;;;9.47;;
75739;SDS011;64357;51.344;6.550;2023-05-10T13:43:32;20.23;;;9.47;;
75739;SDS011;64357;51.344;6.550;2023-05-10T13:46:00;18.10;;;9.20;;
75739;SDS011;64357;51.344;6.550;2023-05-10T13:48:26;18.77;;;8.73;;
75739;SDS011;64357;51.344;6.550;2023-05-10T13:50:54;13.63;;;6.70;;
75739;SDS011;64357;51.344;6.550;2023-05-10T13:53:23;14.95;;;7.32;;
75739;SDS011;64357;51.344;6.550;2023-05-10T13:55:51;14.63;;;8.05;;
75739;SDS011;64357;51.344;6.550;2023-05-10T13:58:17;12.27;;;6.37;;
75739;SDS011;64357;51.344;6.550;2023-05-10T14:00:44;16.73;;;7.60;;
75739;SDS011;64357;51.344;6.550;2023-05-10T14:03:12;16.85;;;8.27;;
75739;SDS011;64357;51.344;6.550;2023-05-10T14:05:40;20.30;;;8.43;;
75739;SDS011;64357;51.344;6.550;2023-05-10T14:08:06;16.10;;;7.50;;
75739;SDS011;64357;51.344;6.550;2023-05-10T14:10:32;17.42;;;8.75;;
75739;SDS011;64357;51.344;6.550;2023-05-10T14:12:57;16.83;;;8.27;;
75739;SDS011;64357;51.344;6.550;2023-05-10T14:15:23;21.67;;;9.43;;
75739;SDS011;64357;51.344;6.550;2023-05-10T14:17:51;17.80;;;8.63;;
75739;SDS011;64357;51.344;6.550;2023-05-10T14:20:16;18.20;;;9.23;;
75739;SDS011;64357;51.344;6.550;2023-05-10T14:22:41;17.37;;;8.30;;
75739;SDS011;64357;51.344;6.550;2023-05-10T14:25:07;16.03;;;7.90;;
75739;SDS011;64357;51.344;6.550;2023-05-10T14:27:36;14.38;;;7.50;;
75739;SDS011;64357;51.344;6.550;2023-05-10T14:30:03;14.70;;;7.05;;
75739;SDS011;64357;51.344;6.550;2023-05-10T14:32:31;16.08;;;7.70;;
75739;SDS011;64357;51.344;6.550;2023-05-10T14:34:57;14.40;;;6.95;;
75739;SDS011;64357;51.344;6.550;2023-05-10T14:37:22;14.00;;;7.37;;
75739;SDS011;64357;51.344;6.550;2023-05-10T14:39:52;15.70;;;7.18;;
75739;SDS011;64357;51.344;6.550;2023-05-10T14:42:17;14.10;;;6.57;;
75739;SDS011;64357;51.344;6.550;2023-05-10T14:44:43;13.77;;;6.13;;
75739;SDS011;64357;51.344;6.550;2023-05-10T14:47:12;12.55;;;5.57;;
75739;SDS011;64357;51.344;6.550;2023-05-10T14:49:38;14.60;;;7.38;;
75739;SDS011;64357;51.344;6.550;2023-05-10T14:52:03;13.63;;;6.50;;
75739;SDS011;64357;51.344;6.550;2023-05-10T14:54:28;14.80;;;7.30;;
75739;SDS011;64357;51.344;6.550;2023-05-10T14:56:54;13.43;;;6.43;;
75739;SDS011;64357;51.344;6.550;2023-05-10T14:59:20;13.50;;;7.07;;
75739;SDS011;64357;51.344;6.550;2023-05-10T15:01:45;14.80;;;7.28;;
75739;SDS011;64357;51.344;6.550;2023-05-10T15:04:13;13.00;;;6.35;;
75739;SDS011;64357;51.344;6.550;2023-05-10T15:06:41;12.13;;;5.82;;
75739;SDS011;64357;51.344;6.550;2023-05-10T15:09:06;11.02;;;5.20;;
75739;SDS011;64357;51.344;6.550;2023-05-10T15:11:32;10.68;;;4.82;;
75739;SDS011;64357;51.344;6.550;2023-05-10T15:13:57;7.25;;;2.85;;
75739;SDS011;64357;51.344;6.550;2023-05-10T15:16:25;6.28;;;2.22;;
75739;SDS011;64357;51.344;6.550;2023-05-10T15:18:50;7.88;;;2.90;;
75739;SDS011;64357;51.344;6.550;2023-05-10T15:21:16;6.00;;;2.30;;
75739;SDS011;64357;51.344;6.550;2023-05-10T15:23:41;6.20;;;2.38;;
75739;SDS011;64357;51.344;6.550;2023-05-10T15:26:09;5.60;;;2.20;;
75739;SDS011;64357;51.344;6.550;2023-05-10T15:28:35;5.18;;;1.80;;
75739;SDS011;64357;51.344;6.550;2023-05-10T15:31:00;9.73;;;2.83;;
75739;SDS011;64357;51.344;6.550;2023-05-10T15:33:25;8.97;;;3.37;;
75739;SDS011;64357;51.344;6.550;2023-05-10T15:35:52;9.73;;;3.20;;